Time;durP1;ratioP1;P1;durP2;ratioP2;P2;SDS_P1;SDS_P2;PMS_P1;PMS_P2;Temp;Humidity;BMP_temperature;BMP_pressure;BME280_temperature;BME280_humidity;BME280_pressure;Samples;Min_cycle;Max_cycle;Signal;HPM_P1;HPM_P2
2021/07/10 00:00:35;;;;;;;9.82;8.73;;;;;;;;;;5093825;28;20024;-58
2021/07/10 00:03:01;;;;;;;9.33;8.20;;;;;;;;;;5093509;28;20461;-58
2021/07/10 00:05:27;;;;;;;8.25;7.38;;;;;;;;;;5093654;28;20765;-58
2021/07/10 00:07:53;;;;;;;7.00;6.32;;;;;;;;;;5094238;28;20031;-59
2021/07/10 00:10:19;;;;;;;7.93;7.13;;;;;;;;;;5093496;28;20043;-59
2021/07/10 00:12:49;;;;;;;11.52;7.75;;;;;;;;;;5093809;28;20055;-58
2021/07/10 00:15:16;;;;;;;9.45;8.45;;;;;;;;;;5093626;28;20092;-58
2021/07/10 00:17:42;;;;;;;9.05;8.18;;;;;;;;;;5094147;28;20108;-58
2021/07/10 00:20:09;;;;;;;12.40;8.63;;;;;;;;;;5093587;28;20031;-59
2021/07/10 00:22:35;;;;;;;8.38;7.53;;;;;;;;;;5093610;28;20040;-59
2021/07/10 00:25:04;;;;;;;8.63;7.70;;;;;;;;;;5093512;28;20074;-58
2021/07/10 00:27:29;;;;;;;7.65;6.78;;;;;;;;;;5094063;28;20047;-58
2021/07/10 00:29:59;;;;;;;9.40;8.07;;;;;;;;;;5093442;28;20025;-58
2021/07/10 00:32:24;;;;;;;6.93;6.20;;;;;;;;;;5093093;28;20044;-58
2021/07/10 00:34:50;;;;;;;14.57;7.15;;;;;;;;;;5092186;28;20028;-58
2021/07/10 00:37:16;;;;;;;7.82;7.05;;;;;;;;;;5093330;28;20154;-59
2021/07/10 00:39:42;;;;;;;8.57;7.22;;;;;;;;;;5096039;28;20350;-58
2021/07/10 00:42:08;;;;;;;9.15;6.85;;;;;;;;;;5096245;28;20032;-58
2021/07/10 00:44:34;;;;;;;6.97;6.38;;;;;;;;;;5097125;28;20063;-58
2021/07/10 00:47:00;;;;;;;7.35;6.63;;;;;;;;;;5095886;28;20035;-58
2021/07/10 00:49:26;;;;;;;9.23;8.25;;;;;;;;;;5097585;28;20425;-58
2021/07/10 00:51:52;;;;;;;8.05;6.97;;;;;;;;;;5097036;28;20028;-58
2021/07/10 00:54:18;;;;;;;7.25;6.55;;;;;;;;;;5096419;28;20036;-58
2021/07/10 00:56:45;;;;;;;7.35;6.65;;;;;;;;;;5095700;28;20032;-58
2021/07/10 00:59:14;;;;;;;7.45;6.53;;;;;;;;;;5096848;28;20066;-58
2021/07/10 01:01:40;;;;;;;7.45;6.75;;;;;;;;;;5095849;28;20028;-58
2021/07/10 01:04:06;;;;;;;7.10;6.13;;;;;;;;;;5097047;28;20051;-58
2021/07/10 01:06:32;;;;;;;8.18;7.22;;;;;;;;;;5097404;28;20027;-58
2021/07/10 01:08:58;;;;;;;6.90;6.20;;;;;;;;;;5097005;28;20069;-58
2021/07/10 01:11:24;;;;;;;7.00;6.30;;;;;;;;;;5097129;28;20051;-58
2021/07/10 01:13:56;;;;;;;10.90;6.80;;;;;;;;;;5095778;28;20060;-59
2021/07/10 01:16:22;;;;;;;8.50;7.55;;;;;;;;;;5096630;28;20060;-58
2021/07/10 01:18:48;;;;;;;8.05;6.88;;;;;;;;;;5096952;28;20024;-59
2021/07/10 01:21:14;;;;;;;8.05;7.25;;;;;;;;;;5096079;28;20032;-58
2021/07/10 01:23:40;;;;;;;6.57;5.82;;;;;;;;;;5096472;28;20355;-58
2021/07/10 01:26:06;;;;;;;9.48;7.28;;;;;;;;;;5096336;28;20024;-59
2021/07/10 01:28:32;;;;;;;7.88;7.03;;;;;;;;;;5096296;28;20355;-58
2021/07/10 01:30:58;;;;;;;8.02;7.22;;;;;;;;;;5096317;28;20109;-58
2021/07/10 01:33:24;;;;;;;8.65;7.82;;;;;;;;;;5096180;28;20111;-59
2021/07/10 01:35:50;;;;;;;8.10;7.30;;;;;;;;;;5096200;28;20458;-58
2021/07/10 01:38:16;;;;;;;8.43;7.43;;;;;;;;;;5096118;28;20020;-58
2021/07/10 01:40:43;;;;;;;9.13;8.23;;;;;;;;;;5096577;28;20016;-58
2021/07/10 01:43:09;;;;;;;9.32;8.35;;;;;;;;;;5095353;28;20024;-58
2021/07/10 01:45:36;;;;;;;11.07;7.95;;;;;;;;;;5096311;28;20078;-58
2021/07/10 01:48:03;;;;;;;7.65;6.90;;;;;;;;;;5094725;28;20427;-58
2021/07/10 01:50:29;;;;;;;9.07;8.07;;;;;;;;;;5093759;28;20073;-58
2021/07/10 01:52:55;;;;;;;9.80;8.90;;;;;;;;;;5096022;28;20041;-59
2021/07/10 01:55:22;;;;;;;8.93;6.80;;;;;;;;;;5095096;28;20035;-58
2021/07/10 01:57:51;;;;;;;7.20;6.43;;;;;;;;;;5096319;28;20374;-59
2021/07/10 02:00:22;;;;;;;7.53;6.57;;;;;;;;;;5095259;28;20022;-59
2021/07/10 02:02:48;;;;;;;;;;;;;;;;;;5096161;28;20341;-59
2021/07/10 02:05:17;;;;;;;8.82;7.90;;;;;;;;;;5095159;28;20000;-59
2021/07/10 02:07:43;;;;;;;8.68;7.82;;;;;;;;;;5095582;28;20028;-58
2021/07/10 02:10:11;;;;;;;8.30;7.50;;;;;;;;;;5095524;28;20127;-58
2021/07/10 02:12:37;;;;;;;10.93;7.90;;;;;;;;;;5095463;28;20055;-58
2021/07/10 02:15:09;;;;;;;9.65;8.70;;;;;;;;;;5095736;28;20032;-58
2021/07/10 02:17:37;;;;;;;9.07;8.00;;;;;;;;;;5095330;28;20032;-58
2021/07/10 02:20:07;;;;;;;7.88;7.07;;;;;;;;;;5094046;28;20366;-58
2021/07/10 02:22:33;;;;;;;8.50;7.65;;;;;;;;;;5094064;28;20077;-58
2021/07/10 02:24:59;;;;;;;7.70;6.93;;;;;;;;;;5095511;28;20111;-58
2021/07/10 02:27:26;;;;;;;9.55;8.43;;;;;;;;;;5095299;28;20504;-58
2021/07/10 02:29:52;;;;;;;10.93;7.80;;;;;;;;;;5095111;28;20047;-58
2021/07/10 02:32:18;;;;;;;12.52;7.68;;;;;;;;;;5095456;28;20420;-58
2021/07/10 02:34:44;;;;;;;8.57;7.82;;;;;;;;;;5094929;28;20036;-58
2021/07/10 02:37:10;;;;;;;8.75;7.85;;;;;;;;;;5093646;28;20060;-58
2021/07/10 02:39:36;;;;;;;9.93;8.52;;;;;;;;;;5093646;28;20458;-58
2021/07/10 02:42:03;;;;;;;9.05;8.15;;;;;;;;;;5094903;28;20035;-58
2021/07/10 02:44:29;;;;;;;9.30;8.40;;;;;;;;;;5094551;28;20501;-58
2021/07/10 02:46:55;;;;;;;8.82;7.97;;;;;;;;;;5094322;28;20458;-58
2021/07/10 02:49:22;;;;;;;10.20;7.53;;;;;;;;;;5094996;28;20027;-58
2021/07/10 02:51:48;;;;;;;10.65;8.63;;;;;;;;;;5095081;28;20024;-58
2021/07/10 02:54:14;;;;;;;8.55;7.70;;;;;;;;;;5093280;28;20036;-58
2021/07/10 02:56:40;;;;;;;8.50;7.60;;;;;;;;;;5094598;28;20033;-58
2021/07/10 02:59:06;;;;;;;9.05;7.90;;;;;;;;;;5094491;28;20024;-58
2021/07/10 03:01:32;;;;;;;10.20;9.20;;;;;;;;;;5094172;28;20050;-58
2021/07/10 03:03:58;;;;;;;9.85;8.95;;;;;;;;;;5095340;28;20050;-58
2021/07/10 03:06:24;;;;;;;9.40;8.50;;;;;;;;;;5094428;28;20024;-58
2021/07/10 03:08:50;;;;;;;9.90;8.98;;;;;;;;;;5093094;28;20428;-58
2021/07/10 03:11:16;;;;;;;9.85;8.85;;;;;;;;;;5093057;28;20436;-58
2021/07/10 03:13:42;;;;;;;9.43;8.52;;;;;;;;;;5094261;28;20036;-58
2021/07/10 03:16:08;;;;;;;10.13;8.52;;;;;;;;;;5093543;28;20081;-58
2021/07/10 03:18:34;;;;;;;8.40;7.50;;;;;;;;;;5094159;28;20028;-58
2021/07/10 03:21:01;;;;;;;14.13;9.20;;;;;;;;;;5092933;28;20463;-58
2021/07/10 03:23:27;;;;;;;8.48;7.57;;;;;;;;;;5094215;28;20039;-58
2021/07/10 03:25:53;;;;;;;9.93;8.65;;;;;;;;;;5092887;28;20378;-58
2021/07/10 03:28:19;;;;;;;10.32;9.25;;;;;;;;;;5094038;28;20024;-58
2021/07/10 03:30:50;;;;;;;9.48;8.48;;;;;;;;;;5094015;28;20028;-58
2021/07/10 03:33:16;;;;;;;9.38;8.48;;;;;;;;;;5094607;28;20122;-58
2021/07/10 03:35:43;;;;;;;10.25;7.88;;;;;;;;;;5092451;28;20081;-58
2021/07/10 03:38:09;;;;;;;9.52;8.30;;;;;;;;;;5092762;28;20028;-58
2021/07/10 03:40:35;;;;;;;10.40;9.40;;;;;;;;;;5093318;28;20081;-58
2021/07/10 03:43:01;;;;;;;12.07;9.00;;;;;;;;;;5094574;28;20036;-58
2021/07/10 03:45:27;;;;;;;9.85;7.80;;;;;;;;;;5093858;28;20059;-58
2021/07/10 03:47:53;;;;;;;9.30;8.38;;;;;;;;;;5094179;28;20067;-58
2021/07/10 03:50:19;;;;;;;10.40;9.40;;;;;;;;;;5092686;28;20060;-58
2021/07/10 03:52:45;;;;;;;10.90;9.70;;;;;;;;;;5093836;28;20031;-58
2021/07/10 03:55:12;;;;;;;11.48;10.32;;;;;;;;;;5093892;28;20085;-58
2021/07/10 03:57:39;;;;;;;11.65;10.50;;;;;;;;;;5092445;28;20072;-58
2021/07/10 04:00:06;;;;;;;11.15;8.57;;;;;;;;;;5094377;28;20063;-58
2021/07/10 04:02:32;;;;;;;12.32;11.23;;;;;;;;;;5093704;28;20442;-58
2021/07/10 04:04:58;;;;;;;10.13;9.05;;;;;;;;;;5093790;28;20028;-58
2021/07/10 04:07:24;;;;;;;9.95;8.93;;;;;;;;;;5093640;28;20024;-58
2021/07/10 04:09:50;;;;;;;11.23;10.13;;;;;;;;;;5093606;28;20155;-59
2021/07/10 04:12:16;;;;;;;10.52;9.43;;;;;;;;;;5093677;28;20393;-58
2021/07/10 04:14:42;;;;;;;12.38;9.75;;;;;;;;;;5096427;28;20058;-58
2021/07/10 04:17:08;;;;;;;10.48;9.55;;;;;;;;;;5098133;28;20031;-58
2021/07/10 04:19:34;;;;;;;10.52;8.82;;;;;;;;;;5097855;28;20034;-58
2021/07/10 04:22:00;;;;;;;11.63;9.60;;;;;;;;;;5096084;28;20469;-58
2021/07/10 04:24:26;;;;;;;10.27;9.25;;;;;;;;;;5097236;28;20081;-58
2021/07/10 04:26:52;;;;;;;11.25;9.50;;;;;;;;;;5096146;28;20036;-58
2021/07/10 04:29:18;;;;;;;9.77;8.85;;;;;;;;;;5096169;28;20043;-58
2021/07/10 04:31:47;;;;;;;10.43;9.32;;;;;;;;;;5097546;28;20103;-58
2021/07/10 04:34:13;;;;;;;11.30;10.05;;;;;;;;;;5096074;28;20036;-58
2021/07/10 04:36:39;;;;;;;10.68;9.68;;;;;;;;;;5097088;28;20055;-58
2021/07/10 04:39:05;;;;;;;10.95;9.85;;;;;;;;;;5096918;28;20075;-58
2021/07/10 04:41:31;;;;;;;15.73;9.25;;;;;;;;;;5097210;28;20084;-58
2021/07/10 04:43:57;;;;;;;8.80;7.97;;;;;;;;;;5097127;28;20029;-58
2021/07/10 04:46:26;;;;;;;9.77;8.77;;;;;;;;;;5096861;28;20028;-58
2021/07/10 04:48:52;;;;;;;10.98;9.95;;;;;;;;;;5097006;28;20051;-58
2021/07/10 04:51:18;;;;;;;11.75;10.57;;;;;;;;;;5096363;28;20369;-58
2021/07/10 04:53:47;;;;;;;13.13;9.90;;;;;;;;;;5095692;28;20035;-58
2021/07/10 04:56:13;;;;;;;10.98;9.85;;;;;;;;;;5096691;28;20466;-58
2021/07/10 04:58:39;;;;;;;10.38;9.38;;;;;;;;;;5096620;28;20474;-58
2021/07/10 05:01:05;;;;;;;12.35;9.32;;;;;;;;;;5097516;28;20027;-58
2021/07/10 05:03:31;;;;;;;10.23;9.23;;;;;;;;;;5096836;28;20024;-58
2021/07/10 05:06:00;;;;;;;12.50;8.95;;;;;;;;;;5096996;28;20028;-58
2021/07/10 05:08:26;;;;;;;9.88;8.93;;;;;;;;;;5097305;28;20365;-58
2021/07/10 05:10:52;;;;;;;9.65;8.75;;;;;;;;;;5096115;28;20394;-58
2021/07/10 05:13:18;;;;;;;9.75;8.02;;;;;;;;;;5096997;28;20039;-58
2021/07/10 05:15:44;;;;;;;9.70;8.70;;;;;;;;;;5096863;28;20062;-58
2021/07/10 05:18:10;;;;;;;9.77;7.97;;;;;;;;;;5095271;28;20457;-58
2021/07/10 05:20:36;;;;;;;9.82;8.10;;;;;;;;;;5096479;28;20072;-58
2021/07/10 05:23:02;;;;;;;7.60;6.90;;;;;;;;;;5094967;28;20028;-58
2021/07/10 05:25:28;;;;;;;8.75;7.50;;;;;;;;;;5095382;28;20566;-58
2021/07/10 05:27:54;;;;;;;7.03;6.40;;;;;;;;;;5097189;28;20024;-58
2021/07/10 05:30:20;;;;;;;6.75;6.03;;;;;;;;;;5096667;28;20035;-59
2021/07/10 05:32:48;;;;;;;7.50;6.80;;;;;;;;;;5096306;28;20056;-58
2021/07/10 05:35:18;;;;;;;8.45;7.35;;;;;;;;;;5094990;28;20028;-58
2021/07/10 05:37:44;;;;;;;9.00;7.57;;;;;;;;;;5096598;28;20016;-58
2021/07/10 05:40:11;;;;;;;8.73;7.82;;;;;;;;;;5096073;28;20024;-59
2021/07/10 05:42:37;;;;;;;8.43;7.53;;;;;;;;;;5095694;28;20024;-58
2021/07/10 05:45:03;;;;;;;9.80;8.25;;;;;;;;;;5096347;28;20035;-58
2021/07/10 05:47:32;;;;;;;8.63;7.72;;;;;;;;;;5094427;28;20024;-58
2021/07/10 05:49:58;;;;;;;8.43;7.13;;;;;;;;;;5095993;28;20028;-58
2021/07/10 05:52:24;;;;;;;7.75;7.10;;;;;;;;;;5095963;28;20458;-58
2021/07/10 05:54:50;;;;;;;8.25;7.35;;;;;;;;;;5095852;28;20036;-58
2021/07/10 05:57:16;;;;;;;8.98;7.55;;;;;;;;;;5095473;28;20402;-59
2021/07/10 05:59:42;;;;;;;8.02;6.65;;;;;;;;;;5095845;28;20065;-59
2021/07/10 06:02:08;;;;;;;10.23;7.28;;;;;;;;;;5095747;28;20035;-58
2021/07/10 06:04:35;;;;;;;9.55;7.38;;;;;;;;;;5095683;28;20035;-58
2021/07/10 06:07:03;;;;;;;8.48;7.32;;;;;;;;;;5095568;28;20149;-58
2021/07/10 06:09:35;;;;;;;9.93;7.85;;;;;;;;;;5095561;28;20029;-58
2021/07/10 06:12:02;;;;;;;6.65;6.03;;;;;;;;;;5094682;28;20063;-59
2021/07/10 06:14:29;;;;;;;7.25;6.55;;;;;;;;;;5096075;28;20339;-59
2021/07/10 06:16:54;;;;;;;7.90;7.07;;;;;;;;;;5095091;28;20519;-58
2021/07/10 06:19:20;;;;;;;6.32;5.72;;;;;;;;;;5095103;28;20032;-58
2021/07/10 06:21:46;;;;;;;7.55;5.57;;;;;;;;;;5096223;28;20031;-58
2021/07/10 06:24:12;;;;;;;7.68;6.35;;;;;;;;;;5093603;28;20473;-58
2021/07/10 06:26:39;;;;;;;7.90;5.82;;;;;;;;;;5095765;28;20024;-58
2021/07/10 06:29:08;;;;;;;6.75;4.82;;;;;;;;;;5095438;28;20419;-58
2021/07/10 06:31:35;;;;;;;5.90;5.40;;;;;;;;;;5095997;28;20074;-58
2021/07/10 06:34:01;;;;;;;6.20;5.60;;;;;;;;;;5094585;28;20331;-58
2021/07/10 06:36:27;;;;;;;7.72;5.30;;;;;;;;;;5093700;28;20111;-59
2021/07/10 06:38:53;;;;;;;7.75;6.28;;;;;;;;;;5095543;28;20028;-58
2021/07/10 06:41:20;;;;;;;6.07;5.47;;;;;;;;;;5094046;28;20034;-59
2021/07/10 06:43:45;;;;;;;7.45;5.53;;;;;;;;;;5093643;28;20031;-59
2021/07/10 06:46:12;;;;;;;5.88;5.35;;;;;;;;;;5094882;28;20024;-58
2021/07/10 06:48:38;;;;;;;5.90;5.40;;;;;;;;;;5094431;28;20028;-58
2021/07/10 06:51:06;;;;;;;7.85;6.35;;;;;;;;;;5094257;28;20073;-59
2021/07/10 06:53:33;;;;;;;5.63;5.03;;;;;;;;;;5095023;28;20024;-59
2021/07/10 06:55:59;;;;;;;6.13;5.53;;;;;;;;;;5094959;28;20020;-59
2021/07/10 06:58:25;;;;;;;6.07;5.45;;;;;;;;;;5094707;28;20104;-59
2021/07/10 07:00:51;;;;;;;7.72;5.40;;;;;;;;;;5094474;28;20024;-59
2021/07/10 07:03:17;;;;;;;5.63;5.03;;;;;;;;;;5094956;28;20117;-58
2021/07/10 07:05:43;;;;;;;5.80;5.25;;;;;;;;;;5094484;28;20047;-58
2021/07/10 07:08:09;;;;;;;6.30;5.57;;;;;;;;;;5095026;28;20335;-59
2021/07/10 07:10:35;;;;;;;5.65;5.05;;;;;;;;;;5076336;28;20555;-59
2021/07/10 07:13:01;;;;;;;6.72;6.00;;;;;;;;;;5093871;28;20036;-59
2021/07/10 07:15:28;;;;;;;6.28;5.05;;;;;;;;;;5095073;28;20048;-59
2021/07/10 07:17:54;;;;;;;5.57;4.53;;;;;;;;;;5094221;28;20036;-58
2021/07/10 07:20:20;;;;;;;6.07;5.53;;;;;;;;;;5094346;28;20115;-59
2021/07/10 07:22:56;;;;;;;5.97;5.38;;;;;;;;;;5094771;28;20016;-59
2021/07/10 07:25:22;;;;;;;6.10;5.47;;;;;;;;;;5094596;28;20056;-59
2021/07/10 07:27:49;;;;;;;5.57;5.03;;;;;;;;;;5094755;28;20028;-59
2021/07/10 07:30:15;;;;;;;5.88;4.68;;;;;;;;;;5094646;28;20031;-59
2021/07/10 07:32:41;;;;;;;5.70;4.88;;;;;;;;;;5094138;28;20012;-59
2021/07/10 07:35:09;;;;;;;5.18;4.57;;;;;;;;;;5094276;28;20465;-59
2021/07/10 07:37:35;;;;;;;5.05;4.55;;;;;;;;;;5093991;28;20419;-59
2021/07/10 07:40:01;;;;;;;11.13;5.05;;;;;;;;;;5093967;28;20020;-59
2021/07/10 07:42:27;;;;;;;6.82;6.22;;;;;;;;;;5094070;28;20016;-59
2021/07/10 07:44:53;;;;;;;6.53;5.57;;;;;;;;;;5094297;28;20512;-59
2021/07/10 07:47:19;;;;;;;7.72;6.65;;;;;;;;;;5093805;28;20071;-59
2021/07/10 07:49:46;;;;;;;6.72;6.05;;;;;;;;;;5093764;28;20027;-59
2021/07/10 07:52:15;;;;;;;7.55;6.38;;;;;;;;;;5094074;28;20020;-59
2021/07/10 07:54:41;;;;;;;6.13;5.53;;;;;;;;;;5093122;28;20056;-59
2021/07/10 07:57:07;;;;;;;8.43;5.63;;;;;;;;;;5093697;28;20028;-59
2021/07/10 07:59:34;;;;;;;7.43;5.72;;;;;;;;;;5093452;28;20450;-59
2021/07/10 08:02:00;;;;;;;7.13;6.43;;;;;;;;;;5094178;28;20459;-59
2021/07/10 08:04:26;;;;;;;6.68;5.80;;;;;;;;;;5093736;28;20047;-59
2021/07/10 08:06:52;;;;;;;6.80;5.97;;;;;;;;;;5094264;28;20435;-59
2021/07/10 08:09:18;;;;;;;7.00;5.93;;;;;;;;;;5093561;28;20035;-59
2021/07/10 08:11:44;;;;;;;8.13;5.65;;;;;;;;;;5094206;28;20054;-59
2021/07/10 08:14:10;;;;;;;6.50;5.82;;;;;;;;;;5093944;28;20071;-59
2021/07/10 08:16:36;;;;;;;7.28;5.43;;;;;;;;;;5092412;28;20058;-59
2021/07/10 08:19:02;;;;;;;5.80;5.20;;;;;;;;;;5093475;28;20020;-59
2021/07/10 08:21:29;;;;;;;5.03;4.30;;;;;;;;;;5093882;28;20038;-59
2021/07/10 08:23:55;;;;;;;4.80;4.40;;;;;;;;;;5094065;28;20049;-59
2021/07/10 08:26:21;;;;;;;4.63;4.10;;;;;;;;;;5094357;28;20146;-59
2021/07/10 08:28:47;;;;;;;5.30;3.75;;;;;;;;;;5092566;28;20508;-59
2021/07/10 08:31:13;;;;;;;5.53;4.90;;;;;;;;;;5092696;28;20065;-59
2021/07/10 08:33:40;;;;;;;5.78;5.03;;;;;;;;;;5092605;28;20077;-59
2021/07/10 08:36:09;;;;;;;6.35;4.32;;;;;;;;;;5094191;28;20107;-59
2021/07/10 08:38:36;;;;;;;5.88;4.07;;;;;;;;;;5093429;28;20016;-59
2021/07/10 08:41:03;;;;;;;5.25;4.10;;;;;;;;;;5092741;28;20027;-59
2021/07/10 08:43:29;;;;;;;4.60;4.15;;;;;;;;;;5093378;28;20064;-59
2021/07/10 08:45:56;;;;;;;5.25;3.92;;;;;;;;;;5093275;28;20055;-59
2021/07/10 08:48:23;;;;;;;6.72;5.38;;;;;;;;;;5093867;28;20438;-59
2021/07/10 08:50:49;;;;;;;4.75;3.63;;;;;;;;;;5093659;28;20020;-59
2021/07/10 08:53:15;;;;;;;4.55;3.90;;;;;;;;;;5092838;28;20474;-59
2021/07/10 08:55:41;;;;;;;4.95;3.75;;;;;;;;;;5092067;28;20119;-59
2021/07/10 08:58:07;;;;;;;5.80;4.20;;;;;;;;;;5093285;28;20027;-59
2021/07/10 09:00:38;;;;;;;4.28;3.45;;;;;;;;;;5095650;28;20020;-59
2021/07/10 09:03:05;;;;;;;3.88;2.92;;;;;;;;;;5095673;28;20032;-59
2021/07/10 09:05:32;;;;;;;3.80;3.25;;;;;;;;;;5097473;28;20024;-59
2021/07/10 09:08:16;;;;;;;3.78;2.92;;;;;;;;;;5096794;28;20051;-59
2021/07/10 09:10:50;;;;;;;5.82;4.28;;;;;;;;;;5096294;28;20381;-59
2021/07/10 09:13:17;;;;;;;4.53;3.95;;;;;;;;;;5096328;28;20028;-59
2021/07/10 09:15:44;;;;;;;5.68;3.65;;;;;;;;;;5096678;28;20145;-59
2021/07/10 09:18:11;;;;;;;5.07;3.53;;;;;;;;;;5094978;28;20035;-59
2021/07/10 09:20:38;;;;;;;4.10;3.15;;;;;;;;;;5096538;28;20052;-59
2021/07/10 09:23:23;;;;;;;4.60;4.00;;;;;;;;;;5096895;28;20020;-59
2021/07/10 09:25:49;;;;;;;8.68;3.22;;;;;;;;;;5096738;28;20103;-59
2021/07/10 09:28:15;;;;;;;4.55;3.45;;;;;;;;;;5096360;28;20024;-59
2021/07/10 09:30:43;;;;;;;4.50;3.38;;;;;;;;;;5096712;28;20024;-59
2021/07/10 09:33:12;;;;;;;4.30;3.20;;;;;;;;;;5095914;28;20477;-59
2021/07/10 09:35:54;;;;;;;6.78;3.05;;;;;;;;;;5096245;28;20034;-59
2021/07/10 09:38:40;;;;;;;3.53;2.67;;;;;;;;;;5096209;28;20031;-59
2021/07/10 09:41:11;;;;;;;3.80;2.97;;;;;;;;;;5096013;28;20027;-59
2021/07/10 09:43:37;;;;;;;;;;;;;;;;;;5096564;28;20054;-59
2021/07/10 09:46:04;;;;;;;4.45;2.80;;;;;;;;;;5095785;28;19904;-59
2021/07/10 09:48:31;;;;;;;3.88;3.20;;;;;;;;;;5096576;28;20025;-59
2021/07/10 09:51:17;;;;;;;3.90;2.75;;;;;;;;;;5096027;28;20024;-59
2021/07/10 09:53:56;;;;;;;4.43;3.30;;;;;;;;;;5095720;28;20078;-59
2021/07/10 09:56:22;;;;;;;6.43;2.80;;;;;;;;;;5095980;28;20081;-59
2021/07/10 09:58:48;;;;;;;4.57;2.40;;;;;;;;;;5096338;28;20681;-59
2021/07/10 10:01:33;;;;;;;3.30;2.70;;;;;;;;;;5096210;28;20028;-59
2021/07/10 10:04:19;;;;;;;4.82;2.58;;;;;;;;;;5095914;28;20070;-59
2021/07/10 10:06:48;;;;;;;3.78;2.50;;;;;;;;;;5095527;28;20035;-59
2021/07/10 10:09:18;;;;;;;3.15;2.10;;;;;;;;;;5095674;28;20477;-59
2021/07/10 10:11:49;;;;;;;4.35;2.03;;;;;;;;;;5095483;28;20048;-59
2021/07/10 10:14:15;;;;;;;4.03;2.33;;;;;;;;;;5095592;28;20032;-60
2021/07/10 10:16:45;;;;;;;3.13;2.30;;;;;;;;;;5095667;28;20073;-60
2021/07/10 10:19:11;;;;;;;4.28;2.63;;;;;;;;;;5095115;28;20427;-60
2021/07/10 10:21:37;;;;;;;3.28;1.88;;;;;;;;;;5095405;28;20016;-60
2021/07/10 10:24:04;;;;;;;5.28;2.40;;;;;;;;;;5095369;28;20039;-60
2021/07/10 10:26:30;;;;;;;3.22;2.38;;;;;;;;;;5093967;28;20024;-60
2021/07/10 10:28:56;;;;;;;3.15;1.80;;;;;;;;;;5095553;28;20054;-60
2021/07/10 10:31:22;;;;;;;2.80;1.95;;;;;;;;;;5095573;28;20441;-61
2021/07/10 10:33:49;;;;;;;3.10;2.25;;;;;;;;;;5094346;28;20032;-60
2021/07/10 10:36:16;;;;;;;3.10;2.13;;;;;;;;;;5095117;28;20466;-60
2021/07/10 10:38:42;;;;;;;3.70;2.22;;;;;;;;;;5095583;28;20027;-60
2021/07/10 10:41:09;;;;;;;2.97;2.40;;;;;;;;;;5095684;28;20369;-60
2021/07/10 10:43:35;;;;;;;3.80;2.17;;;;;;;;;;5094917;28;20032;-60
2021/07/10 10:46:15;;;;;;;2.78;2.00;;;;;;;;;;5093534;28;20016;-60
2021/07/10 10:48:42;;;;;;;3.50;2.25;;;;;;;;;;5095030;28;20016;-60
2021/07/10 10:51:24;;;;;;;2.70;2.03;;;;;;;;;;5095661;28;20122;-60
2021/07/10 10:53:51;;;;;;;3.38;2.22;;;;;;;;;;5095145;28;20066;-60
2021/07/10 10:56:35;;;;;;;3.92;2.50;;;;;;;;;;5094741;28;20039;-60
2021/07/10 10:59:01;;;;;;;2.78;1.83;;;;;;;;;;5094690;28;20064;-60
2021/07/10 11:01:31;;;;;;;4.07;2.38;;;;;;;;;;5095253;28;20031;-60
2021/07/10 11:03:58;;;;;;;2.70;1.88;;;;;;;;;;5095449;28;20024;-60
2021/07/10 11:06:27;;;;;;;2.85;1.92;;;;;;;;;;5094405;28;20027;-60
2021/07/10 11:08:53;;;;;;;3.33;1.85;;;;;;;;;;5094744;28;20027;-60
2021/07/10 11:11:21;;;;;;;3.00;2.33;;;;;;;;;;5093086;28;20053;-60
2021/07/10 11:14:10;;;;;;;3.58;2.22;;;;;;;;;;5093954;28;20020;-60
2021/07/10 11:16:36;;;;;;;2.17;1.75;;;;;;;;;;5094913;28;20035;-60
2021/07/10 11:19:04;;;;;;;3.17;2.28;;;;;;;;;;5094331;28;20021;-60
2021/07/10 11:21:41;;;;;;;2.88;2.15;;;;;;;;;;5094538;28;20446;-60
2021/07/10 11:24:19;;;;;;;3.47;2.83;;;;;;;;;;5093739;28;20031;-60
2021/07/10 11:26:54;;;;;;;3.33;2.38;;;;;;;;;;5094163;28;20523;-60
2021/07/10 11:29:22;;;;;;;3.10;2.03;;;;;;;;;;5094192;28;20032;-60
2021/07/10 11:31:48;;;;;;;3.72;2.58;;;;;;;;;;5094399;28;20412;-60
2021/07/10 11:34:16;;;;;;;4.90;2.22;;;;;;;;;;5094047;28;20081;-60
2021/07/10 11:36:44;;;;;;;3.42;2.58;;;;;;;;;;5094027;28;20477;-60
2021/07/10 11:39:26;;;;;;;3.33;2.22;;;;;;;;;;5094315;28;20020;-60
2021/07/10 11:41:53;;;;;;;3.38;2.22;;;;;;;;;;5093936;28;20031;-60
2021/07/10 11:44:21;;;;;;;2.90;2.53;;;;;;;;;;5093531;28;20028;-60
2021/07/10 11:46:56;;;;;;;4.68;3.10;;;;;;;;;;5093938;28;20024;-60
2021/07/10 11:49:40;;;;;;;3.45;2.42;;;;;;;;;;5093628;28;20085;-60
2021/07/10 11:52:06;;;;;;;4.63;2.40;;;;;;;;;;5093180;28;20111;-61
2021/07/10 11:54:33;;;;;;;3.13;2.03;;;;;;;;;;5093766;28;20035;-60
2021/07/10 11:57:00;;;;;;;3.92;2.72;;;;;;;;;;5093732;28;20063;-60
2021/07/10 11:59:26;;;;;;;2.55;2.08;;;;;;;;;;5093745;28;20406;-60
2021/07/10 12:01:52;;;;;;;3.28;2.47;;;;;;;;;;5094497;28;20020;-60
2021/07/10 12:04:19;;;;;;;3.03;2.50;;;;;;;;;;5093767;28;20032;-60
2021/07/10 12:06:50;;;;;;;4.15;2.50;;;;;;;;;;5093808;28;20107;-60
2021/07/10 12:09:17;;;;;;;3.92;2.53;;;;;;;;;;5093748;28;20106;-60
2021/07/10 12:11:43;;;;;;;3.08;2.63;;;;;;;;;;5094503;28;20462;-60
2021/07/10 12:14:10;;;;;;;7.00;2.58;;;;;;;;;;5093675;28;20031;-61
2021/07/10 12:16:37;;;;;;;3.17;2.15;;;;;;;;;;5093676;28;20130;-61
2021/07/10 12:19:03;;;;;;;2.35;2.03;;;;;;;;;;5093623;28;20107;-60
2021/07/10 12:21:33;;;;;;;3.55;2.67;;;;;;;;;;5094476;28;20027;-60
2021/07/10 12:24:00;;;;;;;2.67;2.00;;;;;;;;;;5093733;28;20081;-60
2021/07/10 12:26:27;;;;;;;2.85;2.13;;;;;;;;;;5093492;28;20061;-60
2021/07/10 12:28:55;;;;;;;3.17;2.40;;;;;;;;;;5092595;28;20020;-59
2021/07/10 12:31:26;;;;;;;3.75;2.80;;;;;;;;;;5093295;28;20028;-59
2021/07/10 12:33:58;;;;;;;3.78;2.33;;;;;;;;;;5093199;28;20024;-60
2021/07/10 12:36:26;;;;;;;2.88;2.17;;;;;;;;;;5097476;28;20478;-60
2021/07/10 12:38:52;;;;;;;2.60;2.17;;;;;;;;;;5097441;28;20020;-60
2021/07/10 12:41:26;;;;;;;3.00;2.25;;;;;;;;;;5097341;28;20362;-59
2021/07/10 12:43:53;;;;;;;2.25;1.75;;;;;;;;;;5097320;28;20024;-59
2021/07/10 12:46:19;;;;;;;3.45;2.88;;;;;;;;;;5097266;28;20047;-59
2021/07/10 12:48:45;;;;;;;4.38;2.80;;;;;;;;;;5097757;28;20032;-59
2021/07/10 12:51:12;;;;;;;3.75;2.42;;;;;;;;;;5097801;28;20024;-59
2021/07/10 12:53:43;;;;;;;3.53;1.83;;;;;;;;;;5097009;28;20028;-59
2021/07/10 12:56:25;;;;;;;4.03;2.17;;;;;;;;;;5096729;28;20038;-59
2021/07/10 12:58:52;;;;;;;3.95;2.15;;;;;;;;;;5097720;28;20502;-59
2021/07/10 13:01:21;;;;;;;3.17;2.20;;;;;;;;;;5097873;28;20077;-59
2021/07/10 13:03:55;;;;;;;3.25;2.63;;;;;;;;;;5097019;28;20032;-59
2021/07/10 13:06:22;;;;;;;3.70;2.50;;;;;;;;;;5096760;28;20099;-60
2021/07/10 13:08:55;;;;;;;2.63;1.92;;;;;;;;;;5096823;28;20073;-59
2021/07/10 13:11:22;;;;;;;2.67;1.92;;;;;;;;;;5096841;28;20060;-59
2021/07/10 13:13:58;;;;;;;3.38;2.50;;;;;;;;;;5096654;28;20373;-59
2021/07/10 13:16:31;;;;;;;3.28;2.65;;;;;;;;;;5097007;28;20078;-59
2021/07/10 13:19:01;;;;;;;2.70;2.10;;;;;;;;;;5097322;28;20050;-59
2021/07/10 13:21:31;;;;;;;2.38;1.85;;;;;;;;;;5097515;28;20029;-60
2021/07/10 13:23:58;;;;;;;2.90;2.30;;;;;;;;;;5096625;28;20067;-59
2021/07/10 13:26:28;;;;;;;3.22;1.90;;;;;;;;;;5096518;28;20028;-59
2021/07/10 13:29:06;;;;;;;2.70;1.98;;;;;;;;;;5096485;28;20461;-60
2021/07/10 13:31:34;;;;;;;2.35;1.60;;;;;;;;;;5096513;28;20107;-59
2021/07/10 13:34:09;;;;;;;2.47;1.98;;;;;;;;;;5096249;28;20438;-59
2021/07/10 13:36:36;;;;;;;2.95;2.10;;;;;;;;;;5094890;28;20085;-59
2021/07/10 13:39:02;;;;;;;2.95;2.20;;;;;;;;;;5094901;28;20024;-59
2021/07/10 13:41:29;;;;;;;2.42;1.80;;;;;;;;;;5096516;28;20032;-60
2021/07/10 13:44:06;;;;;;;3.78;2.13;;;;;;;;;;5096122;28;20020;-59
2021/07/10 13:46:35;;;;;;;2.30;1.83;;;;;;;;;;5094973;28;20024;-60
2021/07/10 13:49:18;;;;;;;7.78;2.05;;;;;;;;;;5096372;28;20103;-59
2021/07/10 13:51:52;;;;;;;2.78;2.08;;;;;;;;;;5096288;28;20031;-59
2021/07/10 13:54:26;;;;;;;2.40;1.80;;;;;;;;;;5095945;28;20028;-59
2021/07/10 13:57:11;;;;;;;3.20;2.00;;;;;;;;;;5096619;28;20046;-59
2021/07/10 13:59:38;;;;;;;2.97;2.22;;;;;;;;;;5095857;28;20040;-59
2021/07/10 14:02:05;;;;;;;3.35;2.60;;;;;;;;;;5096205;28;20035;-57
2021/07/10 14:04:31;;;;;;;2.63;2.08;;;;;;;;;;5096085;28;20035;-57
2021/07/10 14:06:57;;;;;;;3.67;2.05;;;;;;;;;;5094704;28;20024;-57
2021/07/10 14:09:23;;;;;;;4.65;2.17;;;;;;;;;;5095623;28;20150;-57
2021/07/10 14:11:49;;;;;;;2.97;2.42;;;;;;;;;;5096273;28;20432;-57
2021/07/10 14:14:15;;;;;;;3.13;2.00;;;;;;;;;;5095559;28;20105;-57
2021/07/10 14:16:41;;;;;;;4.18;2.28;;;;;;;;;;5095535;28;20032;-57
2021/07/10 14:19:07;;;;;;;3.20;2.17;;;;;;;;;;5095774;28;20458;-57
2021/07/10 14:21:33;;;;;;;2.83;2.08;;;;;;;;;;5095444;28;20024;-57
2021/07/10 14:23:59;;;;;;;3.40;1.95;;;;;;;;;;5095604;28;20055;-57
2021/07/10 14:26:25;;;;;;;3.05;2.10;;;;;;;;;;5095303;28;20070;-57
2021/07/10 14:28:51;;;;;;;2.80;1.95;;;;;;;;;;5095147;28;20024;-57
2021/07/10 14:31:17;;;;;;;3.80;1.80;;;;;;;;;;5095016;28;20056;-57
2021/07/10 14:33:43;;;;;;;2.63;1.95;;;;;;;;;;5095339;28;20085;-57
2021/07/10 14:36:09;;;;;;;2.50;1.95;;;;;;;;;;5095464;28;20035;-57
2021/07/10 14:38:37;;;;;;;3.03;2.13;;;;;;;;;;5095309;28;20062;-57
2021/07/10 14:41:03;;;;;;;2.38;1.60;;;;;;;;;;5094734;28;20496;-57
2021/07/10 14:43:29;;;;;;;2.50;1.75;;;;;;;;;;5095237;28;20043;-57